createdAt,value
2023-01-23T00:01:39.090Z,32.45
2023-01-23T00:04:06.841Z,33.47
2023-01-23T00:06:35.418Z,37.72
2023-01-23T00:09:04.245Z,33.95
2023-01-23T00:11:33.254Z,44.17
2023-01-23T00:14:03.529Z,29.83
2023-01-23T00:16:34.475Z,35.20
2023-01-23T00:19:02.755Z,42.22
2023-01-23T00:21:31.463Z,32.03
2023-01-23T00:24:02.171Z,31.15
2023-01-23T00:26:35.016Z,33.13
2023-01-23T00:29:05.083Z,30.42
2023-01-23T00:31:40.016Z,34.53
2023-01-23T00:34:15.103Z,34.70
2023-01-23T00:36:45.386Z,36.00
2023-01-23T00:39:20.418Z,32.13
2023-01-23T00:41:52.688Z,27.10
2023-01-23T00:44:21.629Z,30.17
2023-01-23T00:46:50.076Z,28.10
2023-01-23T00:49:20.508Z,34.00
2023-01-23T00:51:50.529Z,32.00
2023-01-23T00:54:20.516Z,28.60
2023-01-23T00:56:48.957Z,29.35
2023-01-23T00:59:16.997Z,27.27
2023-01-23T01:01:46.063Z,26.88
2023-01-23T01:04:13.597Z,31.88
2023-01-23T01:06:40.854Z,35.40
2023-01-23T01:09:08.040Z,24.48
2023-01-23T01:11:35.397Z,29.23
2023-01-23T01:14:02.762Z,30.40
2023-01-23T01:16:30.600Z,26.48
2023-01-23T01:18:59.525Z,30.63
2023-01-23T01:21:26.943Z,26.90
2023-01-23T01:23:54.091Z,26.98
2023-01-23T01:26:23.055Z,28.08
2023-01-23T01:28:51.053Z,25.73
2023-01-23T01:31:18.634Z,27.02
2023-01-23T01:33:46.355Z,23.73
2023-01-23T01:36:18.629Z,29.05
2023-01-23T01:38:47.584Z,30.98
2023-01-23T01:41:16.447Z,29.38
2023-01-23T01:43:44.903Z,30.02
2023-01-23T01:46:22.730Z,29.00
2023-01-23T01:49:15.922Z,27.70
2023-01-23T01:52:01.001Z,28.20
2023-01-23T01:54:43.070Z,27.15
2023-01-23T01:57:22.476Z,31.80
2023-01-23T01:59:58.730Z,27.85
2023-01-23T02:02:37.274Z,28.50
2023-01-23T02:05:12.158Z,24.35
2023-01-23T02:07:57.290Z,27.38
2023-01-23T02:12:53.757Z,31.45
2023-01-23T02:15:23.055Z,26.77
2023-01-23T02:17:55.012Z,28.00
2023-01-23T02:20:28.644Z,23.13
2023-01-23T02:23:19.858Z,28.85
2023-01-23T02:26:01.347Z,27.75
2023-01-23T02:28:43.877Z,30.95
2023-01-23T02:31:14.948Z,27.58
2023-01-23T02:33:50.648Z,23.60
2023-01-23T02:39:11.268Z,20.38
2023-01-23T02:41:52.001Z,21.33
2023-01-23T02:44:28.856Z,22.80
2023-01-23T02:47:04.086Z,24.55
2023-01-23T02:49:32.668Z,23.65
2023-01-23T02:52:00.521Z,23.30
2023-01-23T02:54:27.999Z,26.58
2023-01-23T02:56:57.262Z,20.10
2023-01-23T02:59:43.616Z,27.73
2023-01-23T03:02:12.303Z,21.13
2023-01-23T03:04:40.314Z,24.17
2023-01-23T03:07:08.622Z,28.92
2023-01-23T03:09:37.236Z,25.02
2023-01-23T03:12:05.663Z,23.20
2023-01-23T03:14:34.888Z,21.98
2023-01-23T03:17:03.268Z,28.52
2023-01-23T03:19:35.345Z,23.23
2023-01-23T03:22:03.722Z,22.27
2023-01-23T03:24:36.000Z,22.90
2023-01-23T03:27:04.541Z,22.63
2023-01-23T03:29:57.921Z,22.13
2023-01-23T03:32:26.613Z,24.77
2023-01-23T03:34:56.102Z,28.48
2023-01-23T03:37:24.691Z,24.50
2023-01-23T03:40:11.467Z,23.85
2023-01-23T03:42:38.668Z,26.42
2023-01-23T03:45:09.537Z,26.30
2023-01-23T03:47:36.890Z,23.95
2023-01-23T03:50:04.833Z,22.75
2023-01-23T03:52:38.079Z,23.05
2023-01-23T03:55:07.334Z,24.23
2023-01-23T03:57:35.708Z,23.48
2023-01-23T04:00:14.041Z,21.87
2023-01-23T04:02:44.805Z,23.95
2023-01-23T04:05:14.782Z,22.10
2023-01-23T04:07:43.555Z,26.27
2023-01-23T04:10:13.263Z,21.83
2023-01-23T04:12:44.037Z,23.25
2023-01-23T04:15:12.524Z,21.40
2023-01-23T04:17:42.267Z,22.27
2023-01-23T04:20:12.416Z,26.23
2023-01-23T04:22:43.164Z,25.08
2023-01-23T04:25:19.165Z,22.95
2023-01-23T04:27:47.633Z,23.45
2023-01-23T04:30:15.478Z,21.05
2023-01-23T04:32:43.169Z,22.98
2023-01-23T04:35:10.803Z,20.23
2023-01-23T04:37:41.728Z,22.75
2023-01-23T04:40:15.138Z,20.38
2023-01-23T04:42:57.337Z,21.15
2023-01-23T04:45:39.780Z,19.08
2023-01-23T04:48:35.291Z,20.77
2023-01-23T04:51:06.585Z,23.00
2023-01-23T04:53:41.026Z,18.73
2023-01-23T04:56:08.305Z,18.60
2023-01-23T04:58:35.723Z,21.90
2023-01-23T05:01:08.414Z,21.30
2023-01-23T05:03:37.263Z,21.95
2023-01-23T05:06:04.450Z,21.38
2023-01-23T05:08:33.719Z,21.52
2023-01-23T05:11:19.727Z,20.83
2023-01-23T05:13:47.334Z,20.33
2023-01-23T05:16:14.688Z,21.30
2023-01-23T05:19:13.799Z,18.90
2023-01-23T05:21:41.482Z,19.30
2023-01-23T05:24:12.571Z,21.50
2023-01-23T05:26:39.526Z,21.20
2023-01-23T05:29:07.111Z,18.58
2023-01-23T05:31:37.360Z,19.52
2023-01-23T05:34:30.538Z,20.25
2023-01-23T05:36:59.899Z,20.52
2023-01-23T05:39:27.929Z,20.17
2023-01-23T05:41:56.821Z,21.85
2023-01-23T05:44:36.223Z,18.48
2023-01-23T05:47:06.472Z,18.38
2023-01-23T05:49:34.095Z,21.27
2023-01-23T05:52:01.375Z,18.05
2023-01-23T05:54:28.624Z,16.73
2023-01-23T05:56:58.246Z,19.17
2023-01-23T05:59:44.363Z,16.90
2023-01-23T06:02:29.962Z,23.23
2023-01-23T06:05:23.376Z,19.80
2023-01-23T06:10:38.475Z,19.42
2023-01-23T06:13:06.083Z,19.60
2023-01-23T06:15:33.039Z,19.30
2023-01-23T06:18:05.444Z,19.08
2023-01-23T06:20:32.353Z,18.50
2023-01-23T06:23:00.823Z,19.08
2023-01-23T06:25:28.155Z,19.40
2023-01-23T06:27:57.398Z,20.65
2023-01-23T06:30:27.165Z,26.55
2023-01-23T06:32:55.214Z,20.55
2023-01-23T06:35:29.076Z,21.05
2023-01-23T06:37:55.916Z,22.05
2023-01-23T06:40:23.759Z,23.08
2023-01-23T06:43:10.902Z,20.55
2023-01-23T06:45:37.774Z,20.02
2023-01-23T06:48:05.385Z,22.60
2023-01-23T06:50:32.490Z,21.92
2023-01-23T06:52:59.619Z,23.05
2023-01-23T06:55:27.427Z,20.27
2023-01-23T06:57:54.350Z,21.08
2023-01-23T07:00:22.542Z,20.83
2023-01-23T07:02:53.083Z,23.00
2023-01-23T07:05:24.246Z,24.55
2023-01-23T07:07:54.041Z,21.92
2023-01-23T07:10:24.930Z,20.45
2023-01-23T07:12:52.729Z,22.90
2023-01-23T07:15:19.698Z,21.20
2023-01-23T07:17:48.274Z,24.23
2023-01-23T07:20:15.536Z,21.83
2023-01-23T07:22:49.440Z,24.80
2023-01-23T07:25:16.409Z,20.88
2023-01-23T07:27:43.270Z,22.50
2023-01-23T07:30:11.014Z,22.35
2023-01-23T07:32:37.902Z,22.00
2023-01-23T07:35:06.757Z,21.90
2023-01-23T07:37:34.331Z,20.88
2023-01-23T07:40:01.500Z,21.67
2023-01-23T07:42:28.643Z,24.00
2023-01-23T07:44:55.903Z,20.30
2023-01-23T07:47:22.732Z,20.73
2023-01-23T07:49:49.827Z,19.42
2023-01-23T07:52:16.656Z,22.60
2023-01-23T07:54:43.499Z,22.10
2023-01-23T07:57:10.359Z,21.63
2023-01-23T07:59:37.171Z,22.15
2023-01-23T08:02:03.984Z,20.02
2023-01-23T08:04:30.862Z,18.30
2023-01-23T08:06:57.682Z,18.98
2023-01-23T08:09:24.511Z,19.05
2023-01-23T08:11:52.764Z,21.42
2023-01-23T08:14:20.617Z,19.17
2023-01-23T08:16:52.179Z,20.67
2023-01-23T08:19:20.139Z,20.42
2023-01-23T08:21:47.243Z,19.40
2023-01-23T08:24:14.900Z,21.85
2023-01-23T08:26:45.229Z,18.45
2023-01-23T08:29:12.805Z,19.08
2023-01-23T08:31:40.298Z,19.17
2023-01-23T08:34:10.419Z,18.88
2023-01-23T08:36:42.336Z,18.45
2023-01-23T08:39:09.290Z,18.27
2023-01-23T08:41:36.117Z,19.90
2023-01-23T08:44:03.897Z,19.83
2023-01-23T08:46:38.339Z,17.90
2023-01-23T08:49:05.358Z,19.55
2023-01-23T08:51:32.182Z,17.02
2023-01-23T08:53:59.058Z,16.73
2023-01-23T08:56:25.962Z,19.75
2023-01-23T08:58:53.249Z,20.00
2023-01-23T09:01:24.513Z,18.10
2023-01-23T09:03:51.364Z,20.67
2023-01-23T09:06:21.392Z,20.88
2023-01-23T09:08:48.831Z,18.35
2023-01-23T09:11:17.192Z,22.13
2023-01-23T09:17:29.756Z,27.73
2023-01-23T09:20:28.927Z,25.27
2023-01-23T09:28:06.119Z,24.75
2023-01-23T09:30:38.051Z,25.63
2023-01-23T09:34:24.013Z,25.67
2023-01-23T09:36:52.488Z,25.43
2023-01-23T09:39:20.855Z,24.10
2023-01-23T09:41:51.684Z,23.77
2023-01-23T09:44:46.636Z,23.05
2023-01-23T09:47:26.608Z,21.88
2023-01-23T09:50:12.985Z,23.30
2023-01-23T09:52:58.184Z,21.65
2023-01-23T09:55:40.262Z,22.48
2023-01-23T09:58:23.597Z,20.80
2023-01-23T10:00:52.095Z,23.25
2023-01-23T10:03:24.687Z,21.42
2023-01-23T10:06:11.316Z,21.65
2023-01-23T10:09:48.587Z,23.65
2023-01-23T10:13:04.794Z,18.67
2023-01-23T10:16:20.775Z,20.35
2023-01-23T10:19:29.293Z,17.80
2023-01-23T10:25:26.680Z,16.02
2023-01-23T10:28:05.828Z,13.27
2023-01-23T10:30:38.548Z,17.92
2023-01-23T10:33:18.302Z,16.00
2023-01-23T10:36:01.758Z,16.60
2023-01-23T10:38:48.407Z,13.57
2023-01-23T10:41:23.324Z,15.18
2023-01-23T10:43:53.461Z,14.63
2023-01-23T10:46:35.485Z,14.00
2023-01-23T10:49:02.985Z,14.55
2023-01-23T10:51:47.681Z,14.45
2023-01-23T10:54:31.227Z,14.65
2023-01-23T10:57:24.962Z,11.15
2023-01-23T11:00:04.524Z,13.82
2023-01-23T11:02:35.663Z,13.10
2023-01-23T11:05:37.638Z,15.15
2023-01-23T11:08:47.447Z,12.93
2023-01-23T11:11:48.651Z,12.95
2023-01-23T11:19:10.659Z,12.50
2023-01-23T11:22:04.239Z,13.10
2023-01-23T11:25:51.953Z,12.52
2023-01-23T11:33:01.677Z,14.00
2023-01-23T11:35:43.758Z,13.38
2023-01-23T11:39:04.193Z,12.80
2023-01-23T11:43:20.514Z,13.27
2023-01-23T11:47:18.059Z,13.40
2023-01-23T11:51:09.469Z,13.77
2023-01-23T12:00:38.955Z,11.38
2023-01-23T12:26:26.437Z,14.48
2023-01-23T12:29:10.515Z,12.43
2023-01-23T12:32:27.018Z,12.35
2023-01-23T12:37:47.149Z,12.43
2023-01-23T12:40:23.197Z,13.55
2023-01-23T12:43:18.159Z,13.40
2023-01-23T12:45:54.078Z,14.20
2023-01-23T12:48:43.001Z,12.95
2023-01-23T12:51:29.323Z,13.07
2023-01-23T12:54:00.668Z,14.55
2023-01-23T12:59:36.127Z,13.73
2023-01-23T13:02:51.292Z,15.18
2023-01-23T13:05:40.034Z,13.70
2023-01-23T13:08:23.744Z,12.65
2023-01-23T13:11:30.606Z,13.35
2023-01-23T13:13:58.690Z,13.88
2023-01-23T13:16:31.751Z,13.10
2023-01-23T13:19:20.730Z,13.10
2023-01-23T13:22:32.422Z,13.70
2023-01-23T13:25:17.257Z,11.32
2023-01-23T13:27:52.830Z,13.10
2023-01-23T13:30:26.260Z,15.88
2023-01-23T13:33:03.904Z,14.05
2023-01-23T13:35:40.044Z,12.48
2023-01-23T13:38:22.082Z,15.35
2023-01-23T13:41:04.382Z,12.75
2023-01-23T13:43:49.945Z,13.93
2023-01-23T14:25:25.757Z,13.60
2023-01-23T14:28:04.854Z,16.25
2023-01-23T14:30:31.832Z,19.25
2023-01-23T14:33:01.549Z,18.88
2023-01-23T14:35:32.385Z,16.58
2023-01-23T14:38:04.556Z,16.40
2023-01-23T14:40:43.492Z,15.98
2023-01-23T14:43:29.425Z,15.63
2023-01-23T14:46:20.342Z,22.33
2023-01-23T14:48:54.405Z,19.92
2023-01-23T14:51:27.343Z,20.40
2023-01-23T14:54:01.336Z,17.98
2023-01-23T14:56:35.958Z,19.03
2023-01-23T14:59:07.807Z,19.38
2023-01-23T15:01:36.039Z,18.65
2023-01-23T15:04:23.490Z,22.17
2023-01-23T15:06:57.602Z,19.50
2023-01-23T15:09:41.352Z,19.05
2023-01-23T15:12:17.699Z,21.45
2023-01-23T15:14:45.491Z,20.60
2023-01-23T15:17:18.813Z,17.55
2023-01-23T15:19:55.132Z,19.08
2023-01-23T15:22:28.627Z,20.50
2023-01-23T15:24:56.267Z,18.10
2023-01-23T15:27:37.018Z,18.60
2023-01-23T15:30:46.247Z,16.50
2023-01-23T15:33:30.595Z,21.00
2023-01-23T15:36:22.267Z,18.85
2023-01-23T15:38:49.223Z,20.15
2023-01-23T15:41:21.344Z,19.35
2023-01-23T15:43:53.750Z,20.92
2023-01-23T15:46:23.598Z,23.52
2023-01-23T15:48:50.497Z,22.63
2023-01-23T15:51:18.000Z,28.35
2023-01-23T15:53:44.828Z,22.92
2023-01-23T15:56:27.813Z,20.15
2023-01-23T15:58:55.288Z,18.23
2023-01-23T16:01:22.180Z,19.55
2023-01-23T16:03:51.128Z,21.52
2023-01-23T16:06:21.300Z,21.33
2023-01-23T16:08:55.026Z,20.45
2023-01-23T16:11:33.935Z,20.10
2023-01-23T16:14:01.787Z,18.70
2023-01-23T16:16:29.917Z,20.15
2023-01-23T16:18:56.868Z,18.52
2023-01-23T16:21:29.757Z,21.90
2023-01-23T16:23:57.545Z,18.92
2023-01-23T16:26:27.843Z,18.20
2023-01-23T16:29:01.965Z,20.63
2023-01-23T16:31:39.678Z,18.47
2023-01-23T16:34:06.536Z,18.25
2023-01-23T16:36:33.623Z,20.23
2023-01-23T16:39:00.738Z,18.52
2023-01-23T16:41:28.738Z,19.92
2023-01-23T16:43:55.855Z,21.02
2023-01-23T16:46:31.148Z,18.50
2023-01-23T16:48:58.096Z,21.05
2023-01-23T16:51:25.431Z,24.15
2023-01-23T16:54:00.658Z,19.38
2023-01-23T16:56:36.805Z,21.20
2023-01-23T16:59:07.584Z,19.90
2023-01-23T17:01:40.619Z,20.35
2023-01-23T17:04:08.223Z,22.10
2023-01-23T17:06:35.447Z,20.38
2023-01-23T17:09:02.516Z,19.80
2023-01-23T17:11:41.247Z,19.65
2023-01-23T17:14:17.901Z,20.10
2023-01-23T17:45:23.394Z,27.35
2023-01-23T17:47:54.386Z,25.40
2023-01-23T17:50:26.041Z,22.50
2023-01-23T17:52:55.418Z,20.42
2023-01-23T17:55:31.872Z,19.30
2023-01-23T17:58:00.636Z,20.92
2023-01-23T18:00:29.808Z,19.92
2023-01-23T18:03:02.762Z,20.23
2023-01-23T18:05:30.130Z,18.23
2023-01-23T18:07:59.750Z,20.48
2023-01-23T18:10:30.285Z,17.75
2023-01-23T18:13:19.535Z,20.00
2023-01-23T18:16:24.253Z,17.42
2023-01-23T18:19:04.389Z,18.52
2023-01-23T18:21:31.868Z,19.15
2023-01-23T18:23:59.105Z,15.15
2023-01-23T18:26:53.666Z,17.27
2023-01-23T18:29:36.693Z,16.60
2023-01-23T18:32:16.293Z,17.08
2023-01-23T18:35:09.397Z,19.70
2023-01-23T18:38:14.957Z,19.77
2023-01-23T18:41:11.298Z,17.23
2023-01-23T18:43:43.655Z,13.98
2023-01-23T18:46:35.749Z,15.52
2023-01-23T18:49:04.022Z,16.73
2023-01-23T18:51:47.191Z,15.93
2023-01-23T18:54:49.868Z,14.80
2023-01-23T18:57:31.552Z,14.65
2023-01-23T19:00:24.741Z,13.45
2023-01-23T19:02:58.126Z,14.60
2023-01-23T19:05:32.758Z,15.48
2023-01-23T19:08:02.170Z,12.65
2023-01-23T19:10:47.567Z,12.40
2023-01-23T19:13:50.946Z,13.18
2023-01-23T19:16:31.997Z,14.25
2023-01-23T19:19:54.754Z,16.08
2023-01-23T19:22:23.219Z,16.00
2023-01-23T19:24:50.704Z,14.68
2023-01-23T19:27:22.880Z,15.63
2023-01-23T19:29:50.343Z,17.58
2023-01-23T19:32:17.935Z,18.15
2023-01-23T19:34:45.261Z,16.90
2023-01-23T19:37:12.217Z,18.70
2023-01-23T19:39:39.453Z,19.60
2023-01-23T19:42:12.620Z,20.73
2023-01-23T19:44:39.672Z,19.40
2023-01-23T19:47:09.209Z,21.15
2023-01-23T19:49:36.738Z,22.75
2023-01-23T19:52:04.149Z,20.23
2023-01-23T19:54:31.463Z,16.08
2023-01-23T19:56:58.724Z,19.30
2023-01-23T19:59:26.676Z,16.75
2023-01-23T20:01:54.894Z,15.77
2023-01-23T20:04:24.070Z,14.98
2023-01-23T20:06:52.215Z,18.75
2023-01-23T20:09:20.199Z,20.67
2023-01-23T20:11:47.851Z,18.00
2023-01-23T20:14:14.941Z,18.98
2023-01-23T20:16:43.371Z,16.83
2023-01-23T20:19:16.587Z,18.90
2023-01-23T20:21:43.842Z,19.98
2023-01-23T20:24:16.180Z,20.60
2023-01-23T20:26:44.278Z,19.05
2023-01-23T20:29:12.087Z,20.42
2023-01-23T20:31:39.391Z,21.23
2023-01-23T20:38:06.993Z,20.15
2023-01-23T20:40:43.281Z,20.23
2023-01-23T20:43:10.449Z,21.48
2023-01-23T20:45:59.408Z,23.15
2023-01-23T20:48:26.621Z,21.02
2023-01-23T20:51:21.629Z,21.55
2023-01-23T20:53:49.916Z,19.90
2023-01-23T20:56:37.431Z,19.88
2023-01-23T20:59:21.436Z,19.25
2023-01-23T21:02:07.293Z,18.85
2023-01-23T21:04:54.680Z,18.63
2023-01-23T21:07:22.560Z,18.48
2023-01-23T21:10:09.585Z,18.15
2023-01-23T21:12:37.438Z,16.88
2023-01-23T21:15:05.245Z,19.52
2023-01-23T21:17:32.560Z,18.27
2023-01-23T21:19:59.849Z,17.45
2023-01-23T21:22:26.958Z,18.73
2023-01-23T21:24:54.120Z,17.58
2023-01-23T21:27:23.427Z,16.92
2023-01-23T21:29:51.728Z,16.15
2023-01-23T21:32:19.933Z,15.13
2023-01-23T21:34:59.337Z,16.70
2023-01-23T21:38:18.930Z,15.02
2023-01-23T21:45:01.689Z,14.98
2023-01-23T21:48:03.725Z,15.48
2023-01-23T21:58:46.303Z,15.77
2023-01-23T22:30:10.480Z,16.48
2023-01-23T22:32:37.563Z,17.05
2023-01-23T22:35:05.013Z,18.05
2023-01-23T22:37:32.093Z,19.40
2023-01-23T22:40:01.486Z,18.13
2023-01-23T22:42:28.592Z,16.88
2023-01-23T22:44:57.607Z,17.92
2023-01-23T22:47:29.808Z,18.70
2023-01-23T22:50:07.066Z,19.10
2023-01-23T22:52:37.138Z,21.80
2023-01-23T22:55:07.571Z,17.05
2023-01-23T22:57:37.130Z,19.48
2023-01-23T23:00:16.515Z,19.60
2023-01-23T23:02:47.587Z,21.17
2023-01-23T23:05:16.712Z,17.55
2023-01-23T23:07:43.747Z,17.17
2023-01-23T23:10:12.045Z,18.75
2023-01-23T23:12:38.950Z,19.55
2023-01-23T23:15:06.675Z,17.77
2023-01-23T23:17:33.538Z,22.50
2023-01-23T23:20:00.414Z,20.38
2023-01-23T23:22:30.050Z,20.52
2023-01-23T23:24:56.927Z,19.52
2023-01-23T23:27:23.753Z,19.85
2023-01-23T23:29:50.647Z,20.35
2023-01-23T23:32:17.559Z,20.02
2023-01-23T23:34:44.956Z,19.52
2023-01-23T23:37:11.887Z,19.73
2023-01-23T23:39:38.660Z,22.75
2023-01-23T23:42:05.508Z,17.52
2023-01-23T23:44:32.320Z,20.25
2023-01-23T23:46:59.200Z,19.40
2023-01-23T23:49:26.390Z,22.02
2023-01-23T23:51:53.296Z,19.98
2023-01-23T23:54:20.188Z,24.00
2023-01-23T23:56:48.262Z,21.10
2023-01-23T23:59:18.137Z,21.80
